createdAt,value
2019-02-08T00:00:40.691Z,36.97
2019-02-08T00:03:45.786Z,39.23
2019-02-08T00:06:52.004Z,34.60
2019-02-08T00:09:57.201Z,35.17
2019-02-08T00:13:02.306Z,33.87
2019-02-08T00:16:07.405Z,35.57
2019-02-08T00:19:12.642Z,33.60
2019-02-08T00:22:17.761Z,34.97
2019-02-08T00:25:22.923Z,33.80
2019-02-08T00:28:28.071Z,33.33
2019-02-08T00:31:35.356Z,34.03
2019-02-08T00:34:40.403Z,34.50
2019-02-08T00:37:45.923Z,31.60
2019-02-08T00:40:51.030Z,32.87
2019-02-08T00:43:56.086Z,31.47
2019-02-08T00:47:01.624Z,30.73
2019-02-08T00:50:09.118Z,32.90
2019-02-08T00:53:14.466Z,33.43
2019-02-08T00:56:19.639Z,31.07
2019-02-08T00:59:24.767Z,33.33
2019-02-08T01:02:29.972Z,33.43
2019-02-08T01:05:35.096Z,34.10
2019-02-08T01:08:40.299Z,31.37
2019-02-08T01:11:45.341Z,30.07
2019-02-08T01:14:50.390Z,30.67
2019-02-08T01:17:55.523Z,29.40
2019-02-08T01:21:00.651Z,30.53
2019-02-08T01:24:05.825Z,30.00
2019-02-08T01:27:10.932Z,31.97
2019-02-08T01:30:18.657Z,32.50
2019-02-08T01:33:23.796Z,29.83
2019-02-08T01:36:28.971Z,32.90
2019-02-08T01:39:34.089Z,30.93
2019-02-08T01:42:39.186Z,33.27
2019-02-08T01:45:44.384Z,32.50
2019-02-08T01:48:49.530Z,28.03
2019-02-08T01:51:54.606Z,31.93
2019-02-08T01:54:59.631Z,28.60
2019-02-08T01:58:04.867Z,30.87
2019-02-08T02:01:09.909Z,25.97
2019-02-08T02:04:15.024Z,26.97
2019-02-08T02:07:20.141Z,26.17
2019-02-08T02:10:30.113Z,23.97
2019-02-08T02:13:35.144Z,24.90
2019-02-08T02:16:40.250Z,24.03
2019-02-08T02:19:45.373Z,24.27
2019-02-08T02:22:50.471Z,21.73
2019-02-08T02:25:55.592Z,23.33
2019-02-08T02:29:00.697Z,21.57
2019-02-08T02:32:05.965Z,24.70
2019-02-08T02:35:11.808Z,21.67
2019-02-08T02:38:16.929Z,24.30
2019-02-08T02:41:22.112Z,24.83
2019-02-08T02:44:27.228Z,22.77
2019-02-08T02:47:32.262Z,22.93
2019-02-08T02:50:37.380Z,24.60
2019-02-08T02:53:42.539Z,23.53
2019-02-08T02:56:47.663Z,23.03
2019-02-08T02:59:52.766Z,21.57
2019-02-08T03:02:59.136Z,20.87
2019-02-08T03:06:04.565Z,19.80
2019-02-08T03:09:10.016Z,18.50
2019-02-08T03:12:15.061Z,17.50
2019-02-08T03:15:20.624Z,17.43
2019-02-08T03:18:25.688Z,18.93
2019-02-08T03:21:30.741Z,15.43
2019-02-08T03:24:35.869Z,16.40
2019-02-08T03:27:41.052Z,16.17
2019-02-08T03:30:51.719Z,16.97
2019-02-08T03:33:57.171Z,15.30
2019-02-08T03:37:02.368Z,18.57
2019-02-08T03:40:10.390Z,19.07
2019-02-08T03:43:15.653Z,19.53
2019-02-08T03:46:20.764Z,18.20
2019-02-08T03:49:25.878Z,18.20
2019-02-08T03:52:30.983Z,17.30
2019-02-08T03:55:36.219Z,19.47
2019-02-08T03:58:41.352Z,18.93
2019-02-08T04:01:47.400Z,19.53
2019-02-08T04:04:53.579Z,18.87
2019-02-08T04:07:58.786Z,18.20
2019-02-08T04:11:04.020Z,17.97
2019-02-08T04:14:09.230Z,16.57
2019-02-08T04:17:14.349Z,17.87
2019-02-08T04:20:23.794Z,16.93
2019-02-08T04:23:28.926Z,17.07
2019-02-08T04:26:35.225Z,18.23
2019-02-08T04:29:40.452Z,15.97
2019-02-08T04:32:45.520Z,17.43
2019-02-08T04:35:51.642Z,18.10
2019-02-08T04:38:56.750Z,17.93
2019-02-08T04:42:01.867Z,19.63
2019-02-08T04:45:07.623Z,17.70
2019-02-08T04:48:12.726Z,18.63
2019-02-08T04:51:17.844Z,18.43
2019-02-08T04:54:23.027Z,17.87
2019-02-08T04:57:28.148Z,18.70
2019-02-08T05:00:34.926Z,17.50
2019-02-08T05:03:40.050Z,17.03
2019-02-08T05:06:45.104Z,17.43
2019-02-08T05:09:50.241Z,16.50
2019-02-08T05:12:55.371Z,16.67
2019-02-08T05:16:00.487Z,18.20
2019-02-08T05:19:05.624Z,19.13
2019-02-08T05:22:10.682Z,18.77
2019-02-08T05:25:15.944Z,17.70
2019-02-08T05:28:20.984Z,18.70
2019-02-08T05:31:26.180Z,19.03
2019-02-08T05:34:31.319Z,19.23
2019-02-08T05:37:36.434Z,18.87
2019-02-08T05:40:41.563Z,18.90
2019-02-08T05:43:46.599Z,19.10
2019-02-08T05:46:51.740Z,20.23
2019-02-08T05:49:57.354Z,21.50
2019-02-08T05:53:02.411Z,19.10
2019-02-08T05:56:07.592Z,20.03
2019-02-08T05:59:12.740Z,18.63
2019-02-08T06:02:17.871Z,20.10
2019-02-08T06:05:24.727Z,21.90
2019-02-08T06:08:29.854Z,21.53
2019-02-08T06:11:34.887Z,21.10
2019-02-08T06:14:40.018Z,22.10
2019-02-08T06:17:45.134Z,21.37
2019-02-08T06:20:50.265Z,21.43
2019-02-08T06:23:55.213Z,22.00
2019-02-08T06:27:00.342Z,24.17
2019-02-08T06:30:06.721Z,23.63
2019-02-08T06:33:11.869Z,21.90
2019-02-08T06:36:16.968Z,22.57
2019-02-08T06:39:22.101Z,24.17
2019-02-08T06:42:27.152Z,22.20
2019-02-08T06:45:32.379Z,22.37
2019-02-08T06:48:37.512Z,21.57
2019-02-08T06:51:42.627Z,23.57
2019-02-08T06:54:47.667Z,21.53
2019-02-08T06:58:15.684Z,22.80
2019-02-08T07:01:40.143Z,20.53
2019-02-08T07:04:59.671Z,22.30
2019-02-08T07:08:25.557Z,21.20
2019-02-08T07:11:42.907Z,19.73
2019-02-08T07:15:05.507Z,21.63
2019-02-08T07:18:35.286Z,21.83
2019-02-08T07:21:57.973Z,22.20
2019-02-08T07:25:22.164Z,24.93
2019-02-08T07:28:32.793Z,22.80
2019-02-08T07:32:03.123Z,23.40
2019-02-08T07:35:26.988Z,24.73
2019-02-08T07:38:54.418Z,26.33
2019-02-08T07:42:15.227Z,24.60
2019-02-08T07:45:42.601Z,24.83
2019-02-08T07:48:57.284Z,22.93
2019-02-08T07:52:21.504Z,25.63
2019-02-08T07:55:48.447Z,22.30
2019-02-08T07:59:00.327Z,23.57
2019-02-08T08:02:10.988Z,22.10
2019-02-08T08:05:32.246Z,21.53
2019-02-08T08:08:54.868Z,22.30
2019-02-08T08:12:15.366Z,22.60
2019-02-08T08:15:40.339Z,22.37
2019-02-08T08:19:00.248Z,21.40
2019-02-08T08:22:14.521Z,20.13
2019-02-08T08:25:33.929Z,21.27
2019-02-08T08:28:53.295Z,20.93
2019-02-08T08:32:26.063Z,21.10
2019-02-08T08:35:49.199Z,20.27
2019-02-08T08:39:15.090Z,21.00
2019-02-08T08:42:58.295Z,21.70
2019-02-08T08:46:35.314Z,21.80
2019-02-08T08:50:06.347Z,22.50
2019-02-08T08:53:38.255Z,23.70
2019-02-08T08:57:13.625Z,21.20
2019-02-08T09:00:45.528Z,24.50
2019-02-08T09:04:05.967Z,21.73
2019-02-08T09:07:51.092Z,21.30
2019-02-08T09:11:43.128Z,22.00
2019-02-08T09:15:17.618Z,21.03
2019-02-08T09:18:42.760Z,20.37
2019-02-08T09:22:22.486Z,19.27
2019-02-08T09:25:56.718Z,21.70
2019-02-08T09:29:36.367Z,19.00
2019-02-08T09:33:10.027Z,19.40
2019-02-08T09:36:56.063Z,21.10
2019-02-08T09:40:49.090Z,19.93
2019-02-08T09:44:29.580Z,18.10
2019-02-08T09:48:19.363Z,19.27
2019-02-08T09:52:29.440Z,19.00
2019-02-08T09:56:12.002Z,17.67
2019-02-08T10:00:00.335Z,16.87
2019-02-08T10:03:47.275Z,17.50
2019-02-08T10:07:36.533Z,16.10
2019-02-08T10:11:20.687Z,15.10
2019-02-08T10:15:01.219Z,16.70
2019-02-08T10:18:48.881Z,12.93
2019-02-08T10:22:30.335Z,13.77
2019-02-08T10:26:10.980Z,12.63
2019-02-08T10:29:59.126Z,11.83
2019-02-08T10:33:59.158Z,11.67
2019-02-08T10:37:40.620Z,11.73
2019-02-08T10:41:30.718Z,12.83
2019-02-08T10:45:09.851Z,12.00
2019-02-08T10:49:08.065Z,11.90
2019-02-08T10:52:56.999Z,11.87
2019-02-08T10:56:37.848Z,9.17
2019-02-08T11:00:14.611Z,9.57
2019-02-08T11:04:11.359Z,9.90
2019-02-08T11:07:51.884Z,11.00
2019-02-08T11:11:42.311Z,11.40
2019-02-08T11:15:25.719Z,9.90
2019-02-08T11:19:15.781Z,10.40
2019-02-08T11:22:20.816Z,10.30
2019-02-08T11:25:25.863Z,10.90
2019-02-08T11:28:30.978Z,10.17
2019-02-08T11:31:36.087Z,9.40
2019-02-08T11:34:41.126Z,8.43
2019-02-08T11:37:46.227Z,8.50
2019-02-08T11:40:51.369Z,8.77
2019-02-08T11:43:56.475Z,9.87
2019-02-08T11:47:01.614Z,11.13
2019-02-08T11:50:10.002Z,8.67
2019-02-08T11:53:15.111Z,9.97
2019-02-08T11:56:20.240Z,9.07
2019-02-08T11:59:25.563Z,8.13
2019-02-08T12:02:30.918Z,9.77
2019-02-08T12:05:36.018Z,9.40
2019-02-08T12:08:41.215Z,9.10
2019-02-08T12:11:46.235Z,10.73
2019-02-08T12:14:53.712Z,9.23
2019-02-08T12:17:58.755Z,9.17
2019-02-08T12:21:03.904Z,8.47
2019-02-08T12:24:09.795Z,8.20
2019-02-08T12:27:14.898Z,7.80
2019-02-08T12:30:23.925Z,7.97
2019-02-08T12:33:29.068Z,9.17
2019-02-08T12:36:35.709Z,7.00
2019-02-08T12:39:40.758Z,9.67
2019-02-08T12:42:48.172Z,9.40
2019-02-08T12:45:53.147Z,8.90
2019-02-08T12:48:58.251Z,8.87
2019-02-08T12:52:03.363Z,7.97
2019-02-08T12:55:09.575Z,9.70
2019-02-08T12:58:14.951Z,7.80
2019-02-08T13:01:19.988Z,7.67
2019-02-08T13:04:25.876Z,8.10
2019-02-08T13:07:30.910Z,8.53
2019-02-08T13:10:36.229Z,8.37
2019-02-08T13:13:41.263Z,7.83
2019-02-08T13:16:46.373Z,8.97
2019-02-08T13:19:51.419Z,14.60
2019-02-08T13:22:56.530Z,8.40
2019-02-08T13:26:01.639Z,9.50
2019-02-08T13:29:06.762Z,9.17
2019-02-08T13:32:11.873Z,8.20
2019-02-08T13:35:16.999Z,9.13
2019-02-08T13:38:22.103Z,7.93
2019-02-08T13:41:27.227Z,9.30
2019-02-08T13:44:32.264Z,9.20
2019-02-08T13:47:37.390Z,7.53
2019-02-08T13:50:42.640Z,8.53
2019-02-08T13:53:47.736Z,8.33
2019-02-08T13:57:00.495Z,9.07
2019-02-08T14:00:01.109Z,9.17
2019-02-08T14:03:06.793Z,8.67
2019-02-08T14:06:11.895Z,8.37
2019-02-08T14:09:17.017Z,8.10
2019-02-08T14:12:22.999Z,7.67
2019-02-08T14:15:28.207Z,8.23
2019-02-08T14:18:33.260Z,8.97
2019-02-08T14:21:38.285Z,8.53
2019-02-08T14:24:43.485Z,9.20
2019-02-08T14:27:50.442Z,9.20
2019-02-08T14:30:55.807Z,8.93
2019-02-08T14:34:00.912Z,9.13
2019-02-08T14:37:06.043Z,10.80
2019-02-08T14:40:13.751Z,10.77
2019-02-08T14:43:18.893Z,8.00
2019-02-08T14:46:24.082Z,8.13
2019-02-08T14:49:29.175Z,7.33
2019-02-08T14:52:34.284Z,8.67
2019-02-08T14:55:39.390Z,7.97
2019-02-08T14:58:44.505Z,8.57
2019-02-08T15:01:49.604Z,9.17
2019-02-08T15:04:54.712Z,7.50
2019-02-08T15:07:59.824Z,7.40
2019-02-08T15:11:05.007Z,8.10
2019-02-08T15:14:10.131Z,7.40
2019-02-08T15:17:15.148Z,6.90
2019-02-08T15:20:22.591Z,5.83
2019-02-08T15:23:27.691Z,6.60
2019-02-08T15:26:32.827Z,8.00
2019-02-08T15:29:37.863Z,6.23
2019-02-08T15:32:43.027Z,6.60
2019-02-08T15:35:48.144Z,7.27
2019-02-08T15:38:53.260Z,8.83
2019-02-08T15:41:58.359Z,8.37
2019-02-08T15:45:03.591Z,6.67
2019-02-08T15:48:08.884Z,6.97
2019-02-08T15:51:14.057Z,7.00
2019-02-08T15:54:20.795Z,7.83
2019-02-08T15:57:32.048Z,7.80
2019-02-08T16:00:32.639Z,6.77
2019-02-08T16:03:37.778Z,7.67
2019-02-08T16:06:42.910Z,8.37
2019-02-08T16:09:48.031Z,7.77
2019-02-08T16:12:53.183Z,7.43
2019-02-08T16:15:58.351Z,5.67
2019-02-08T16:19:03.463Z,7.80
2019-02-08T16:22:08.879Z,7.57
2019-02-08T16:25:14.544Z,7.50
2019-02-08T16:28:19.684Z,9.00
2019-02-08T16:31:24.797Z,8.60
2019-02-08T16:34:29.906Z,8.00
2019-02-08T16:37:35.904Z,8.70
2019-02-08T16:40:40.935Z,9.27
2019-02-08T16:43:46.048Z,8.97
2019-02-08T16:46:51.164Z,6.80
2019-02-08T16:49:56.201Z,15.17
2019-02-08T16:53:01.400Z,8.30
2019-02-08T16:56:06.524Z,8.03
2019-02-08T16:59:11.768Z,7.40
2019-02-08T17:02:16.871Z,6.60
2019-02-08T17:05:22.369Z,7.70
2019-02-08T17:08:27.459Z,8.00
2019-02-08T17:11:32.555Z,7.80
2019-02-08T17:14:37.668Z,28.03
2019-02-08T17:17:42.770Z,16.47
2019-02-08T17:20:48.078Z,15.73
2019-02-08T17:23:53.184Z,8.60
2019-02-08T17:26:58.275Z,7.20
2019-02-08T17:30:03.716Z,6.77
2019-02-08T17:33:09.887Z,6.80
2019-02-08T17:36:14.925Z,6.53
2019-02-08T17:39:20.069Z,5.60
2019-02-08T17:42:25.178Z,5.30
2019-02-08T17:45:30.303Z,6.10
2019-02-08T17:48:35.405Z,6.30
2019-02-08T17:51:40.447Z,6.70
2019-02-08T17:54:45.547Z,8.00
2019-02-08T17:57:50.791Z,6.40
2019-02-08T18:00:57.776Z,6.17
2019-02-08T18:04:02.885Z,5.13
2019-02-08T18:07:07.974Z,5.30
2019-02-08T18:10:16.067Z,5.30
2019-02-08T18:13:21.262Z,5.97
2019-02-08T18:16:26.336Z,6.33
2019-02-08T18:19:31.387Z,7.53
2019-02-08T18:22:36.502Z,8.63
2019-02-08T18:25:41.632Z,12.80
2019-02-08T18:28:46.680Z,8.63
2019-02-08T18:31:51.732Z,7.83
2019-02-08T18:34:56.864Z,8.67
2019-02-08T18:38:02.027Z,7.77
2019-02-08T18:41:07.143Z,8.30
2019-02-08T18:44:12.231Z,7.40
2019-02-08T18:47:17.266Z,7.17
2019-02-08T18:50:24.499Z,7.20
2019-02-08T18:53:29.451Z,7.07
2019-02-08T18:56:34.564Z,7.63
2019-02-08T18:59:39.587Z,7.13
2019-02-08T19:02:44.715Z,6.47
2019-02-08T19:05:49.819Z,6.93
2019-02-08T19:08:54.928Z,7.30
2019-02-08T19:11:59.970Z,7.90
2019-02-08T19:15:06.629Z,8.90
2019-02-08T19:18:11.771Z,6.93
2019-02-08T19:21:16.874Z,8.10
2019-02-08T19:24:21.936Z,8.77
2019-02-08T19:27:27.020Z,8.57
2019-02-08T19:30:36.495Z,8.53
2019-02-08T19:33:41.600Z,8.03
2019-02-08T19:36:46.724Z,8.30
2019-02-08T19:39:51.912Z,8.23
2019-02-08T19:42:57.428Z,8.63
2019-02-08T19:46:03.428Z,8.33
2019-02-08T19:49:09.286Z,6.37
2019-02-08T19:52:14.724Z,6.70
2019-02-08T19:55:19.820Z,5.90
2019-02-08T19:58:24.864Z,7.47
2019-02-08T20:01:30.494Z,6.80
2019-02-08T20:04:35.611Z,6.40
2019-02-08T20:07:40.658Z,7.43
2019-02-08T20:10:47.337Z,6.40
2019-02-08T20:13:52.469Z,7.10
2019-02-08T20:16:57.659Z,10.20
2019-02-08T20:20:02.765Z,7.40
2019-02-08T20:23:08.068Z,7.00
2019-02-08T20:26:13.119Z,6.40
2019-02-08T20:29:18.422Z,6.80
2019-02-08T20:32:23.744Z,6.00
2019-02-08T20:35:29.212Z,6.60
2019-02-08T20:38:34.791Z,6.00
2019-02-08T20:41:39.889Z,6.53
2019-02-08T20:44:45.397Z,6.20
2019-02-08T20:47:50.596Z,6.90
2019-02-08T20:50:55.723Z,8.53
2019-02-08T20:54:00.775Z,6.80
2019-02-08T20:57:06.636Z,6.47
2019-02-08T21:00:34.670Z,7.80
2019-02-08T21:03:39.767Z,6.80
2019-02-08T21:06:44.899Z,6.63
2019-02-08T21:09:49.921Z,7.10
2019-02-08T21:12:55.061Z,6.93
2019-02-08T21:16:00.263Z,7.40
2019-02-08T21:19:05.362Z,7.77
2019-02-08T21:22:10.489Z,6.77
2019-02-08T21:25:18.887Z,6.80
2019-02-08T21:28:24.041Z,7.07
2019-02-08T21:31:29.139Z,6.80
2019-02-08T21:34:34.178Z,6.00
2019-02-08T21:37:39.392Z,5.40
2019-02-08T21:40:44.482Z,5.90
2019-02-08T21:43:49.555Z,6.07
2019-02-08T21:46:54.641Z,6.10
2019-02-08T21:50:00.191Z,5.93
2019-02-08T21:53:06.252Z,5.23
2019-02-08T21:56:11.579Z,6.90
2019-02-08T21:59:16.914Z,6.53
2019-02-08T22:02:22.589Z,7.40
2019-02-08T22:05:33.351Z,6.70
2019-02-08T22:08:38.937Z,6.27
2019-02-08T22:11:44.380Z,6.20
2019-02-08T22:14:49.801Z,6.40
2019-02-08T22:17:55.662Z,6.43
2019-02-08T22:21:01.047Z,7.50
2019-02-08T22:24:06.140Z,6.50
2019-02-08T22:27:11.424Z,7.77
2019-02-08T22:30:20.923Z,7.50
2019-02-08T22:33:26.062Z,6.63
2019-02-08T22:36:31.135Z,6.57
2019-02-08T22:39:36.692Z,5.03
2019-02-08T22:42:42.282Z,5.50
2019-02-08T22:45:47.382Z,4.80
2019-02-08T22:48:52.496Z,4.90
2019-02-08T22:51:57.547Z,5.10
2019-02-08T22:55:02.648Z,4.93
2019-02-08T22:58:08.465Z,5.10
2019-02-08T23:01:40.799Z,4.47
2019-02-08T23:04:45.836Z,5.10
2019-02-08T23:07:50.947Z,5.30
2019-02-08T23:10:56.479Z,5.37
2019-02-08T23:14:01.596Z,5.50
2019-02-08T23:17:06.784Z,5.17
2019-02-08T23:20:12.093Z,5.40
2019-02-08T23:23:17.204Z,4.70
2019-02-08T23:26:22.323Z,4.50
2019-02-08T23:29:30.150Z,5.30
2019-02-08T23:32:34.236Z,5.00
2019-02-08T23:35:43.063Z,4.40
2019-02-08T23:38:46.206Z,5.60
2019-02-08T23:41:51.440Z,4.60
2019-02-08T23:44:56.551Z,4.07
2019-02-08T23:48:01.595Z,4.50
2019-02-08T23:51:06.696Z,4.33
2019-02-08T23:54:11.809Z,4.77
2019-02-08T23:57:16.910Z,4.93
